Grosclose, Virginia
Current Conditions -  °F | °C
As of 11:35 PM on Thursday 18 Dec 2014 (Local Time) from KMKJ Reporting Station
Overcast Overcast  
Wind Chill: 30°   Ceiling: 4500
Heat Index: 37°   Visibility: 10mi
Dew Point: 25°   Wind: 10mph
Humidity: 62%   Direction: 290°WNW
Pressure: 30.11"   Gusts: NA
Location:  36.8797°N, 81.2941°W
Report Text: KMKJ 190435Z AUTO 29009KT 10SM OVC045 03/M04 A3011 RMK AO2 T00271040
Loading
Personal Weather Stations






























Interactive Weather Map New forecast layout! Learn more

10-Day Weather Forecast

Advertisements
Track Severe Weather on mobile